createdAt,value
2023-04-26T00:00:52.034Z,133
2023-04-26T00:03:23.606Z,168
2023-04-26T00:05:54.640Z,168
2023-04-26T00:08:26.070Z,167
2023-04-26T00:10:55.205Z,180
2023-04-26T00:13:25.748Z,145
2023-04-26T00:15:56.548Z,140
2023-04-26T00:18:27.110Z,142
2023-04-26T00:20:58.068Z,134
2023-04-26T00:23:29.017Z,128
2023-04-26T00:26:01.110Z,109
2023-04-26T00:28:31.820Z,85
2023-04-26T00:31:02.610Z,62
2023-04-26T00:33:33.064Z,56
2023-04-26T00:36:03.569Z,52
2023-04-26T00:38:35.289Z,48
2023-04-26T00:41:06.207Z,48
2023-04-26T00:43:37.823Z,44
2023-04-26T00:46:10.900Z,40
2023-04-26T00:48:42.356Z,36
2023-04-26T00:51:13.879Z,39
2023-04-26T00:53:43.689Z,37
2023-04-26T00:56:14.393Z,40
2023-04-26T00:58:44.945Z,42
2023-04-26T01:01:15.794Z,45
2023-04-26T01:03:47.034Z,43
2023-04-26T01:06:17.499Z,39
2023-04-26T01:08:48.156Z,39
2023-04-26T01:11:19.188Z,41
2023-04-26T01:13:51.645Z,40
2023-04-26T01:16:22.296Z,39
2023-04-26T01:18:53.139Z,36
2023-04-26T01:21:23.744Z,40
2023-04-26T01:23:55.144Z,36
2023-04-26T01:26:25.649Z,40
2023-04-26T01:28:56.679Z,40
2023-04-26T01:31:27.858Z,39
2023-04-26T01:34:00.515Z,36
2023-04-26T01:36:31.634Z,39
2023-04-26T01:39:03.945Z,40
2023-04-26T01:41:34.841Z,36
2023-04-26T01:44:06.202Z,36
2023-04-26T01:46:37.166Z,40
2023-04-26T01:49:07.932Z,39
2023-04-26T01:51:38.805Z,40
2023-04-26T01:54:09.487Z,36
2023-04-26T01:56:40.549Z,42
2023-04-26T01:59:11.430Z,44
2023-04-26T02:01:43.757Z,48
2023-04-26T02:04:14.693Z,44
2023-04-26T02:06:45.517Z,44
2023-04-26T02:09:17.978Z,43
2023-04-26T02:11:49.616Z,40
2023-04-26T02:14:20.401Z,44
2023-04-26T02:16:51.441Z,42
2023-04-26T02:19:22.011Z,36
2023-04-26T02:21:52.980Z,40
2023-04-26T02:24:24.000Z,36
2023-04-26T02:26:55.452Z,36
2023-04-26T02:29:40.174Z,36
2023-04-26T02:31:57.717Z,40
2023-04-26T02:34:28.660Z,44
2023-04-26T02:36:59.417Z,40
2023-04-26T02:39:29.880Z,43
2023-04-26T02:42:01.061Z,37
2023-04-26T02:44:31.631Z,42
2023-04-26T02:47:03.351Z,44
2023-04-26T02:49:34.936Z,37
2023-04-26T02:52:05.662Z,41
2023-04-26T02:54:36.460Z,44
2023-04-26T02:57:06.884Z,40
2023-04-26T02:59:38.130Z,41
2023-04-26T03:02:09.149Z,44
2023-04-26T03:04:39.779Z,40
2023-04-26T03:07:11.990Z,40
2023-04-26T03:09:43.147Z,40
2023-04-26T03:12:15.972Z,43
2023-04-26T03:14:46.696Z,44
2023-04-26T03:17:18.113Z,40
2023-04-26T03:19:49.037Z,37
2023-04-26T03:22:21.010Z,41
2023-04-26T03:24:51.885Z,36
2023-04-26T03:27:22.814Z,41
2023-04-26T03:29:54.300Z,39
2023-04-26T03:32:27.054Z,40
2023-04-26T03:34:57.773Z,38
2023-04-26T03:37:28.810Z,36
2023-04-26T03:40:00.190Z,40
2023-04-26T03:42:31.664Z,37
2023-04-26T03:45:02.947Z,37
2023-04-26T03:47:35.439Z,37
2023-04-26T03:50:06.532Z,36
2023-04-26T03:52:37.107Z,36
2023-04-26T03:55:07.948Z,37
2023-04-26T03:57:39.313Z,36
2023-04-26T04:00:10.230Z,40
2023-04-26T04:02:41.942Z,32
2023-04-26T04:05:12.813Z,36
2023-04-26T04:07:42.596Z,34
2023-04-26T04:10:13.647Z,32
2023-04-26T04:12:44.370Z,32
2023-04-26T04:15:15.073Z,37
2023-04-26T04:17:45.797Z,40
2023-04-26T04:20:18.700Z,40
2023-04-26T04:22:49.389Z,33
2023-04-26T04:25:21.343Z,36
2023-04-26T04:27:52.046Z,36
2023-04-26T04:30:24.424Z,32
2023-04-26T04:32:55.177Z,36
2023-04-26T04:35:26.421Z,29
2023-04-26T04:37:57.670Z,35
2023-04-26T04:40:27.600Z,29
2023-04-26T04:42:58.403Z,32
2023-04-26T04:45:31.735Z,40
2023-04-26T04:48:03.139Z,37
2023-04-26T04:50:34.531Z,32
2023-04-26T04:53:05.238Z,30
2023-04-26T04:55:37.461Z,32
2023-04-26T04:58:08.277Z,32
2023-04-26T05:00:38.894Z,32
2023-04-26T05:03:09.685Z,32
2023-04-26T05:05:41.011Z,34
2023-04-26T05:08:12.040Z,28
2023-04-26T05:10:42.632Z,34
2023-04-26T05:13:15.509Z,27
2023-04-26T05:15:46.757Z,28
2023-04-26T05:18:18.646Z,28
2023-04-26T05:20:49.168Z,24
2023-04-26T05:23:19.997Z,26
2023-04-26T05:25:50.954Z,24
2023-04-26T05:28:21.695Z,20
2023-04-26T05:30:54.827Z,26
2023-04-26T05:33:24.865Z,23
2023-04-26T05:35:55.568Z,19
2023-04-26T05:38:27.525Z,20
2023-04-26T05:40:58.340Z,26
2023-04-26T05:43:29.201Z,24
2023-04-26T05:46:03.048Z,17
2023-04-26T05:48:34.289Z,24
2023-04-26T05:51:04.855Z,20
2023-04-26T05:53:35.376Z,24
2023-04-26T05:56:08.050Z,24
2023-04-26T05:58:39.966Z,27
2023-04-26T06:01:10.914Z,18
2023-04-26T06:03:42.103Z,24
2023-04-26T06:06:14.316Z,20
2023-04-26T06:08:44.933Z,24
2023-04-26T06:11:16.449Z,24
2023-04-26T06:13:47.191Z,22
2023-04-26T06:16:19.011Z,23
2023-04-26T06:18:52.101Z,23
2023-04-26T06:21:22.931Z,20
2023-04-26T06:23:55.828Z,20
2023-04-26T06:26:26.893Z,24
2023-04-26T06:28:57.862Z,25
2023-04-26T06:31:29.033Z,24
2023-04-26T06:33:59.789Z,21
2023-04-26T06:36:30.755Z,21
2023-04-26T06:39:01.369Z,28
2023-04-26T06:41:32.163Z,20
2023-04-26T06:44:02.737Z,24
2023-04-26T06:46:34.337Z,24
2023-04-26T06:49:05.337Z,28
2023-04-26T06:51:36.112Z,24
2023-04-26T06:54:09.099Z,24
2023-04-26T06:56:39.747Z,28
2023-04-26T06:59:11.165Z,28
2023-04-26T07:01:41.931Z,32
2023-04-26T07:04:14.915Z,23
2023-04-26T07:06:48.629Z,28
2023-04-26T07:09:20.564Z,24
2023-04-26T07:11:51.484Z,41
2023-04-26T07:14:22.314Z,29
2023-04-26T07:16:55.488Z,28
2023-04-26T07:19:26.031Z,34
2023-04-26T07:21:56.943Z,29
2023-04-26T07:24:38.116Z,28
2023-04-26T07:27:14.611Z,32
2023-04-26T07:29:46.268Z,28
2023-04-26T07:32:20.503Z,34
2023-04-26T07:34:55.399Z,28
2023-04-26T07:37:27.323Z,36
2023-04-26T07:39:58.126Z,32
2023-04-26T07:42:29.002Z,32
2023-04-26T07:44:59.043Z,26
2023-04-26T07:47:31.172Z,32
2023-04-26T07:50:04.265Z,32
2023-04-26T07:52:38.382Z,35
2023-04-26T07:55:08.911Z,28
2023-04-26T07:57:39.815Z,29
2023-04-26T08:00:11.010Z,32
2023-04-26T08:02:44.403Z,30
2023-04-26T08:05:17.897Z,27
2023-04-26T08:07:48.103Z,35
2023-04-26T08:10:18.636Z,32
2023-04-26T08:12:49.078Z,39
2023-04-26T08:15:19.432Z,37
2023-04-26T08:17:57.541Z,36
2023-04-26T08:20:28.004Z,36
2023-04-26T08:23:00.951Z,39
2023-04-26T08:25:31.667Z,36
2023-04-26T08:28:02.711Z,33
2023-04-26T08:30:36.033Z,32
2023-04-26T08:33:10.047Z,32
2023-04-26T08:35:40.909Z,36
2023-04-26T08:38:11.688Z,35
2023-04-26T08:40:45.623Z,37
2023-04-26T08:43:16.169Z,36
2023-04-26T08:45:48.199Z,36
2023-04-26T08:48:21.203Z,32
2023-04-26T08:50:52.749Z,36
2023-04-26T08:53:30.682Z,35
2023-04-26T08:56:01.454Z,32
2023-04-26T08:58:36.527Z,36
2023-04-26T09:01:10.517Z,33
2023-04-26T09:03:43.784Z,40
2023-04-26T09:06:16.330Z,36
2023-04-26T09:08:54.222Z,37
2023-04-26T09:11:26.427Z,39
2023-04-26T09:14:05.309Z,32
2023-04-26T09:16:51.179Z,36
2023-04-26T09:22:19.085Z,36
2023-04-26T09:24:59.295Z,38
2023-04-26T09:27:30.816Z,32
2023-04-26T09:30:07.114Z,36
2023-04-26T09:32:36.674Z,40
2023-04-26T09:35:10.955Z,36
2023-04-26T09:37:50.819Z,40
2023-04-26T09:40:15.999Z,36
2023-04-26T09:42:47.283Z,36
2023-04-26T09:45:27.439Z,36
2023-04-26T09:47:58.443Z,36
2023-04-26T09:50:29.676Z,36
2023-04-26T09:53:00.200Z,36
2023-04-26T09:55:34.515Z,48
2023-04-26T09:58:01.880Z,36
2023-04-26T10:00:34.717Z,39
2023-04-26T10:03:05.803Z,36
2023-04-26T10:05:43.082Z,32
2023-04-26T10:08:13.929Z,32
2023-04-26T10:10:44.680Z,37
2023-04-26T10:13:15.400Z,37
2023-04-26T10:15:45.940Z,32
2023-04-26T10:18:16.680Z,38
2023-04-26T10:20:57.831Z,36
2023-04-26T10:23:28.271Z,28
2023-04-26T10:25:58.104Z,32
2023-04-26T10:28:28.802Z,31
2023-04-26T10:30:59.258Z,36
2023-04-26T10:33:30.279Z,32
2023-04-26T10:36:02.132Z,35
2023-04-26T10:38:32.892Z,32
2023-04-26T10:41:03.842Z,36
2023-04-26T10:43:34.637Z,29
2023-04-26T10:46:10.930Z,36
2023-04-26T10:48:40.018Z,33
2023-04-26T10:51:11.167Z,36
2023-04-26T10:53:41.953Z,32
2023-04-26T10:56:12.614Z,33
2023-04-26T10:58:50.422Z,24
2023-04-26T11:01:22.300Z,28
2023-04-26T11:03:57.659Z,28
2023-04-26T11:06:30.518Z,29
2023-04-26T11:09:04.438Z,27
2023-04-26T11:11:37.168Z,28
2023-04-26T11:14:12.443Z,27
2023-04-26T11:16:47.998Z,20
2023-04-26T11:19:23.097Z,32
2023-04-26T11:21:58.510Z,32
2023-04-26T11:24:36.955Z,33
2023-04-26T11:27:11.349Z,32
2023-04-26T11:29:42.089Z,28
2023-04-26T11:32:12.745Z,29
2023-04-26T11:34:43.891Z,28
2023-04-26T11:37:14.292Z,36
2023-04-26T11:39:45.848Z,29
2023-04-26T11:42:16.414Z,32
2023-04-26T11:44:48.974Z,24
2023-04-26T11:47:21.153Z,25
2023-04-26T11:49:51.706Z,28
2023-04-26T11:52:23.956Z,21
2023-04-26T11:54:57.841Z,23
2023-04-26T11:57:28.344Z,20
2023-04-26T12:00:00.206Z,20
2023-04-26T12:02:30.608Z,12
2023-04-26T12:05:01.265Z,16
2023-04-26T12:07:32.930Z,28
2023-04-26T12:10:07.130Z,20
2023-04-26T12:12:37.447Z,28
2023-04-26T12:15:09.777Z,11
2023-04-26T12:17:47.622Z,12
2023-04-26T12:20:20.541Z,11
2023-04-26T12:22:52.702Z,9
2023-04-26T12:25:27.444Z,4
2023-04-26T12:27:58.104Z,8
2023-04-26T12:30:28.746Z,9
2023-04-26T12:35:39.839Z,8
2023-04-26T12:38:12.243Z,8
2023-04-26T12:40:52.333Z,9
2023-04-26T12:43:24.449Z,12
2023-04-26T12:45:54.945Z,19
2023-04-26T12:48:31.904Z,16
2023-04-26T12:51:02.425Z,9
2023-04-26T12:53:33.616Z,10
2023-04-26T12:56:07.359Z,8
2023-04-26T12:58:42.039Z,13
2023-04-26T13:01:12.458Z,8
2023-04-26T13:03:43.533Z,8
2023-04-26T13:06:14.265Z,16
2023-04-26T13:08:44.968Z,8
2023-04-26T13:11:15.812Z,16
2023-04-26T13:13:50.084Z,11
2023-04-26T13:16:20.734Z,15
2023-04-26T13:18:59.406Z,14
2023-04-26T13:21:30.340Z,16
2023-04-26T13:24:00.906Z,17
2023-04-26T13:26:32.017Z,16
2023-04-26T13:29:02.485Z,24
2023-04-26T13:31:35.630Z,16
2023-04-26T13:34:10.138Z,12
2023-04-26T13:36:45.082Z,35
2023-04-26T13:39:19.844Z,16
2023-04-26T13:41:51.318Z,27
2023-04-26T13:44:25.857Z,8
2023-04-26T13:46:56.482Z,12
2023-04-26T13:49:27.035Z,17
2023-04-26T13:51:55.935Z,16
2023-04-26T13:54:41.597Z,8
2023-04-26T13:57:11.775Z,8
2023-04-26T13:59:41.820Z,8
2023-04-26T14:02:12.391Z,8
2023-04-26T14:04:44.280Z,8
2023-04-26T14:07:19.676Z,11
2023-04-26T14:09:56.463Z,16
2023-04-26T14:12:27.667Z,11
2023-04-26T14:15:07.230Z,8
2023-04-26T14:17:41.149Z,8
2023-04-26T14:20:12.092Z,8
2023-04-26T14:22:44.468Z,8
2023-04-26T14:25:18.502Z,9
2023-04-26T14:27:49.048Z,8
2023-04-26T14:30:19.733Z,7
2023-04-26T14:32:50.382Z,7
2023-04-26T14:35:21.235Z,8
2023-04-26T14:37:51.832Z,8
2023-04-26T14:40:24.028Z,8
2023-04-26T14:42:54.812Z,7
2023-04-26T14:45:33.507Z,32
2023-04-26T14:47:55.669Z,8
2023-04-26T14:50:35.132Z,4
2023-04-26T14:53:05.539Z,8
2023-04-26T14:55:36.590Z,7
2023-04-26T14:58:05.591Z,4
2023-04-26T15:00:36.293Z,8
2023-04-26T15:03:09.763Z,8
2023-04-26T15:05:44.554Z,8
2023-04-26T15:08:19.636Z,8
2023-04-26T15:10:53.158Z,25
2023-04-26T15:13:22.242Z,20
2023-04-26T15:15:53.033Z,12
2023-04-26T15:18:24.705Z,12
2023-04-26T15:20:55.154Z,12
2023-04-26T15:23:28.485Z,15
2023-04-26T15:25:59.111Z,6
2023-04-26T15:28:33.467Z,8
2023-04-26T15:31:06.590Z,17
2023-04-26T15:33:39.004Z,21
2023-04-26T15:36:09.950Z,10
2023-04-26T15:38:41.387Z,12
2023-04-26T15:41:14.679Z,8
2023-04-26T15:43:45.374Z,15
2023-04-26T15:46:17.328Z,17
2023-04-26T15:48:48.360Z,37
2023-04-26T15:51:20.284Z,20
2023-04-26T15:53:52.691Z,10
2023-04-26T15:56:23.052Z,32
2023-04-26T15:58:56.434Z,13
2023-04-26T16:01:33.473Z,16
2023-04-26T16:04:04.146Z,15
2023-04-26T16:06:36.008Z,23
2023-04-26T16:09:17.080Z,25
2023-04-26T16:11:38.986Z,13
2023-04-26T16:14:09.668Z,8
2023-04-26T16:16:41.510Z,8
2023-04-26T16:19:15.014Z,8
2023-04-26T16:21:46.830Z,16
2023-04-26T16:24:18.599Z,16
2023-04-26T16:26:50.686Z,9
2023-04-26T16:29:21.174Z,15
2023-04-26T16:31:52.900Z,8
2023-04-26T16:34:23.496Z,8
2023-04-26T16:36:55.215Z,8
2023-04-26T16:39:25.540Z,4
2023-04-26T16:41:56.976Z,4
2023-04-26T16:44:27.266Z,8
2023-04-26T16:46:57.463Z,4
2023-04-26T16:49:27.852Z,7
2023-04-26T16:51:58.415Z,4
2023-04-26T16:54:28.897Z,7
2023-04-26T16:56:59.494Z,4
2023-04-26T16:59:31.438Z,4
2023-04-26T17:02:02.204Z,11
2023-04-26T17:04:32.735Z,4
2023-04-26T17:07:03.172Z,1
2023-04-26T17:09:35.966Z,6
2023-04-26T17:12:05.307Z,4
2023-04-26T17:14:35.961Z,4
2023-04-26T17:17:08.504Z,4
2023-04-26T17:19:39.558Z,8
2023-04-26T17:22:09.503Z,12
2023-04-26T17:24:40.907Z,8
2023-04-26T17:27:12.934Z,8
2023-04-26T17:29:46.819Z,12
2023-04-26T17:32:17.058Z,5
2023-04-26T17:34:51.508Z,4
2023-04-26T17:37:21.792Z,5
2023-04-26T17:39:51.887Z,7
2023-04-26T17:42:24.310Z,4
2023-04-26T17:44:54.754Z,8
2023-04-26T17:47:23.504Z,16
2023-04-26T17:49:54.003Z,36
2023-04-26T17:52:25.512Z,37
2023-04-26T17:54:54.931Z,21
2023-04-26T17:57:26.444Z,16
2023-04-26T17:59:57.278Z,17
2023-04-26T18:02:27.493Z,19
2023-04-26T18:04:57.827Z,20
2023-04-26T18:07:28.272Z,16
2023-04-26T18:09:57.079Z,22
2023-04-26T18:12:25.941Z,20
2023-04-26T18:14:56.422Z,22
2023-04-26T18:17:27.333Z,20
2023-04-26T18:19:57.678Z,24
2023-04-26T18:22:27.938Z,22
2023-04-26T18:24:58.901Z,16
2023-04-26T18:27:31.226Z,16
2023-04-26T18:30:01.797Z,17
2023-04-26T18:32:33.346Z,14
2023-04-26T18:35:04.992Z,12
2023-04-26T18:37:36.684Z,20
2023-04-26T18:40:05.888Z,14
2023-04-26T18:42:36.121Z,20
2023-04-26T18:45:05.059Z,19
2023-04-26T18:47:34.605Z,12
2023-04-26T18:50:05.962Z,16
2023-04-26T18:52:36.723Z,15
2023-04-26T18:55:06.904Z,12
2023-04-26T18:57:40.912Z,8
2023-04-26T19:00:13.137Z,17
2023-04-26T19:02:44.311Z,16
2023-04-26T19:05:14.739Z,16
2023-04-26T19:07:47.139Z,11
2023-04-26T19:10:18.405Z,9
2023-04-26T19:12:48.764Z,12
2023-04-26T19:15:19.277Z,12
2023-04-26T19:17:51.067Z,12
2023-04-26T19:20:23.031Z,11
2023-04-26T19:22:53.153Z,8
2023-04-26T19:25:23.272Z,12
2023-04-26T19:27:57.750Z,12
2023-04-26T19:30:28.762Z,8
2023-04-26T19:32:59.130Z,12
2023-04-26T19:35:32.498Z,12
2023-04-26T19:38:05.416Z,13
2023-04-26T19:40:35.835Z,11
2023-04-26T19:43:07.027Z,8
2023-04-26T19:45:37.311Z,20
2023-04-26T19:48:07.511Z,16
2023-04-26T19:50:37.818Z,18
2023-04-26T19:53:08.247Z,20
2023-04-26T19:55:39.547Z,14
2023-04-26T19:58:12.106Z,12
2023-04-26T20:00:43.365Z,24
2023-04-26T20:03:14.003Z,8
2023-04-26T20:05:45.242Z,8
2023-04-26T20:08:15.523Z,15
2023-04-26T20:10:46.297Z,11
2023-04-26T20:13:17.886Z,9
2023-04-26T20:15:49.743Z,11
2023-04-26T20:18:22.326Z,9
2023-04-26T20:20:52.637Z,9
2023-04-26T20:23:22.883Z,8
2023-04-26T20:25:53.057Z,10
2023-04-26T20:28:24.250Z,9
2023-04-26T20:30:54.318Z,9
2023-04-26T20:33:23.240Z,9
2023-04-26T20:35:54.760Z,8
2023-04-26T20:38:26.248Z,13
2023-04-26T20:40:57.003Z,11
2023-04-26T20:43:27.118Z,12
2023-04-26T20:45:55.990Z,16
2023-04-26T20:48:26.401Z,15
2023-04-26T20:50:55.600Z,11
2023-04-26T20:53:24.606Z,16
2023-04-26T20:55:56.254Z,12
2023-04-26T20:58:27.436Z,12
2023-04-26T21:00:57.951Z,14
2023-04-26T21:03:28.910Z,20
2023-04-26T21:05:59.248Z,15
2023-04-26T21:08:29.700Z,16
2023-04-26T21:11:01.749Z,16
2023-04-26T21:13:32.650Z,12
2023-04-26T21:16:03.248Z,12
2023-04-26T21:18:35.060Z,15
2023-04-26T21:21:05.976Z,20
2023-04-26T21:23:36.508Z,16
2023-04-26T21:26:06.783Z,12
2023-04-26T21:28:37.149Z,16
2023-04-26T21:31:08.982Z,12
2023-04-26T21:33:41.977Z,14
2023-04-26T21:36:17.939Z,16
2023-04-26T21:38:48.735Z,16
2023-04-26T21:41:19.290Z,18
2023-04-26T21:43:51.110Z,20
2023-04-26T21:46:22.548Z,22
2023-04-26T21:48:52.753Z,28
2023-04-26T21:51:23.091Z,27
2023-04-26T21:53:53.674Z,26
2023-04-26T21:56:26.933Z,26
2023-04-26T21:58:58.029Z,27
2023-04-26T22:01:29.054Z,29
2023-04-26T22:04:01.223Z,24
2023-04-26T22:06:32.720Z,26
2023-04-26T22:09:03.224Z,21
2023-04-26T22:11:34.753Z,32
2023-04-26T22:14:05.640Z,24
2023-04-26T22:16:35.921Z,19
2023-04-26T22:19:07.639Z,26
2023-04-26T22:21:36.445Z,16
2023-04-26T22:24:08.756Z,22
2023-04-26T22:26:39.645Z,20
2023-04-26T22:29:11.037Z,17
2023-04-26T22:31:41.503Z,16
2023-04-26T22:34:12.026Z,16
2023-04-26T22:36:42.565Z,14
2023-04-26T22:39:13.996Z,14
2023-04-26T22:41:45.374Z,12
2023-04-26T22:44:16.961Z,13
2023-04-26T22:46:52.280Z,12
2023-04-26T22:49:22.927Z,12
2023-04-26T22:52:05.649Z,15
2023-04-26T22:54:25.376Z,13
2023-04-26T22:56:55.954Z,12
2023-04-26T22:59:26.747Z,12
2023-04-26T23:01:57.480Z,13
2023-04-26T23:04:31.021Z,12
2023-04-26T23:07:04.176Z,13
2023-04-26T23:09:34.825Z,12
2023-04-26T23:12:05.567Z,13
2023-04-26T23:14:36.014Z,15
2023-04-26T23:17:06.843Z,20
2023-04-26T23:19:38.881Z,35
2023-04-26T23:22:08.751Z,29
2023-04-26T23:24:39.914Z,27
2023-04-26T23:27:09.569Z,36
2023-04-26T23:29:38.797Z,30
2023-04-26T23:32:13.691Z,34
2023-04-26T23:34:44.505Z,28
2023-04-26T23:37:16.016Z,35
2023-04-26T23:39:47.903Z,36
2023-04-26T23:42:18.252Z,40
2023-04-26T23:44:49.111Z,39
2023-04-26T23:47:19.566Z,34
2023-04-26T23:49:50.404Z,35
2023-04-26T23:52:21.887Z,36
2023-04-26T23:54:52.614Z,33
2023-04-26T23:57:23.246Z,31
2023-04-26T23:59:54.624Z,34
